createdAt,value
2018-12-06T00:00:30.581Z,8.40
2018-12-06T00:01:04.875Z,8.30
2018-12-06T00:01:38.626Z,8.30
2018-12-06T00:02:13.598Z,8.40
2018-12-06T00:02:47.640Z,8.40
2018-12-06T00:03:21.649Z,8.40
2018-12-06T00:03:55.574Z,8.40
2018-12-06T00:04:29.554Z,8.40
2018-12-06T00:05:04.770Z,8.30
2018-12-06T00:05:38.779Z,8.40
2018-12-06T00:06:12.635Z,8.40
2018-12-06T00:06:46.674Z,8.40
2018-12-06T00:07:20.602Z,8.40
2018-12-06T00:08:06.095Z,8.40
2018-12-06T00:08:40.539Z,8.40
2018-12-06T00:09:14.518Z,8.40
2018-12-06T00:09:48.530Z,8.40
2018-12-06T00:10:22.374Z,8.40
2018-12-06T00:10:56.343Z,8.40
2018-12-06T00:11:30.374Z,8.40
2018-12-06T00:12:04.277Z,8.40
2018-12-06T00:12:38.050Z,8.40
2018-12-06T00:13:12.030Z,8.40
2018-12-06T00:13:45.993Z,8.40
2018-12-06T00:14:19.956Z,8.40
2018-12-06T00:15:04.263Z,8.40
2018-12-06T00:15:38.274Z,8.40
2018-12-06T00:16:12.015Z,8.40
2018-12-06T00:16:54.150Z,8.30
2018-12-06T00:17:28.582Z,8.40
2018-12-06T00:18:02.424Z,8.30
2018-12-06T00:18:36.223Z,8.40
2018-12-06T00:19:10.198Z,8.40
2018-12-06T00:19:44.162Z,8.40
2018-12-06T00:20:18.003Z,8.40
2018-12-06T00:20:52.493Z,8.30
2018-12-06T00:21:27.352Z,8.40
2018-12-06T00:22:01.470Z,8.40
2018-12-06T00:22:35.337Z,8.40
2018-12-06T00:23:09.509Z,8.40
2018-12-06T00:23:43.253Z,8.40
2018-12-06T00:24:17.024Z,8.40
2018-12-06T00:24:50.993Z,8.40
2018-12-06T00:25:25.011Z,8.40
2018-12-06T00:25:58.941Z,8.40
2018-12-06T00:26:34.690Z,8.40
2018-12-06T00:27:08.742Z,8.40
2018-12-06T00:27:42.721Z,8.40
2018-12-06T00:28:16.622Z,8.40
2018-12-06T00:28:50.420Z,8.40
2018-12-06T00:29:24.293Z,8.40
2018-12-06T00:30:09.666Z,8.40
2018-12-06T00:30:43.681Z,8.40
2018-12-06T00:31:17.671Z,8.40
2018-12-06T00:31:51.650Z,8.40
2018-12-06T00:32:25.595Z,8.40
2018-12-06T00:32:59.603Z,8.40
2018-12-06T00:33:33.538Z,8.40
2018-12-06T00:34:07.506Z,8.40
2018-12-06T00:34:42.186Z,8.40
2018-12-06T00:35:16.122Z,8.40
2018-12-06T00:35:50.167Z,8.40
2018-12-06T00:36:24.269Z,8.40
2018-12-06T00:36:58.279Z,8.40
2018-12-06T00:37:32.184Z,8.40
2018-12-06T00:38:06.720Z,8.40
2018-12-06T00:38:42.044Z,8.40
2018-12-06T00:39:16.174Z,8.40
2018-12-06T00:39:50.715Z,8.40
2018-12-06T00:40:24.686Z,8.40
2018-12-06T00:40:58.774Z,8.40
2018-12-06T00:41:32.770Z,8.40
2018-12-06T00:42:06.763Z,8.40
2018-12-06T00:42:40.722Z,8.40
2018-12-06T00:43:14.576Z,8.40
2018-12-06T00:43:48.529Z,8.40
2018-12-06T00:44:22.412Z,8.40
2018-12-06T00:45:01.095Z,8.40
2018-12-06T00:45:42.442Z,8.40
2018-12-06T00:46:16.423Z,8.40
2018-12-06T00:46:50.492Z,8.40
2018-12-06T00:47:24.906Z,8.30
2018-12-06T00:47:58.851Z,8.40
2018-12-06T00:48:32.747Z,8.40
2018-12-06T00:49:06.644Z,8.40
2018-12-06T00:49:40.540Z,8.40
2018-12-06T00:50:14.437Z,8.40
2018-12-06T00:50:48.302Z,8.40
2018-12-06T00:51:22.255Z,8.40
2018-12-06T00:51:56.423Z,8.40
2018-12-06T00:52:30.119Z,8.30
2018-12-06T00:53:03.961Z,8.30
2018-12-06T00:53:38.053Z,8.40
2018-12-06T00:54:12.050Z,8.40
2018-12-06T00:54:45.902Z,8.40
2018-12-06T00:55:21.000Z,8.30
2018-12-06T00:55:55.364Z,8.40
2018-12-06T00:56:29.366Z,8.40
2018-12-06T00:57:03.278Z,8.40
2018-12-06T00:57:37.313Z,8.40
2018-12-06T00:58:11.328Z,8.40
2018-12-06T00:58:45.207Z,8.40
2018-12-06T00:59:19.418Z,8.40
2018-12-06T00:59:53.741Z,8.40
2018-12-06T01:00:27.936Z,8.40
2018-12-06T01:01:01.980Z,8.40
2018-12-06T01:01:35.874Z,8.40
2018-12-06T01:02:09.946Z,8.40
2018-12-06T01:02:43.802Z,8.30
2018-12-06T01:03:17.694Z,8.30
2018-12-06T01:03:52.489Z,8.30
2018-12-06T01:04:26.309Z,8.30
2018-12-06T01:05:00.327Z,8.40
2018-12-06T01:05:34.820Z,8.30
2018-12-06T01:06:08.715Z,8.30
2018-12-06T01:06:42.543Z,8.30
2018-12-06T01:07:16.311Z,8.30
2018-12-06T01:07:50.290Z,8.30
2018-12-06T01:08:24.629Z,8.40
2018-12-06T01:08:58.703Z,8.30
2018-12-06T01:09:32.697Z,8.30
2018-12-06T01:10:06.907Z,8.30
2018-12-06T01:10:40.900Z,8.30
2018-12-06T01:11:15.137Z,8.30
2018-12-06T01:11:48.980Z,8.30
2018-12-06T01:12:23.260Z,8.30
2018-12-06T01:12:57.887Z,8.30
2018-12-06T01:13:31.773Z,8.30
2018-12-06T01:14:05.546Z,8.30
2018-12-06T01:14:41.536Z,8.30
2018-12-06T01:15:15.333Z,8.30
2018-12-06T01:15:49.142Z,8.30
2018-12-06T01:16:22.782Z,8.30
2018-12-06T01:16:56.660Z,8.30
2018-12-06T01:17:30.691Z,8.40
2018-12-06T01:18:04.713Z,8.30
2018-12-06T01:18:38.714Z,8.30
2018-12-06T01:19:12.498Z,8.40
2018-12-06T01:19:46.302Z,8.30
2018-12-06T01:20:20.072Z,8.30
2018-12-06T01:20:53.765Z,8.30
2018-12-06T01:21:27.580Z,8.30
2018-12-06T01:22:01.466Z,8.30
2018-12-06T01:22:35.502Z,8.30
2018-12-06T01:23:09.374Z,8.30
2018-12-06T01:23:43.272Z,8.30
2018-12-06T01:24:17.285Z,8.30
2018-12-06T01:24:51.145Z,8.30
2018-12-06T01:25:24.993Z,8.30
2018-12-06T01:25:58.830Z,8.30
2018-12-06T01:26:32.603Z,8.30
2018-12-06T01:27:06.579Z,8.30
2018-12-06T01:27:40.318Z,8.30
2018-12-06T01:28:14.172Z,8.30
2018-12-06T01:28:48.053Z,8.30
2018-12-06T01:29:22.175Z,8.30
2018-12-06T01:29:56.249Z,8.30
2018-12-06T01:30:30.375Z,8.30
2018-12-06T01:31:04.166Z,8.30
2018-12-06T01:31:38.074Z,8.30
2018-12-06T01:32:11.925Z,8.30
2018-12-06T01:32:45.758Z,8.30
2018-12-06T01:33:19.526Z,8.30
2018-12-06T01:33:53.948Z,8.30
2018-12-06T01:34:27.674Z,8.30
2018-12-06T01:35:01.667Z,8.30
2018-12-06T01:35:35.712Z,8.30
2018-12-06T01:36:10.458Z,8.30
2018-12-06T01:36:44.282Z,8.30
2018-12-06T01:37:18.223Z,8.30
2018-12-06T01:37:51.924Z,8.30
2018-12-06T01:38:25.811Z,8.30
2018-12-06T01:38:59.596Z,8.30
2018-12-06T01:39:33.371Z,8.30
2018-12-06T01:40:07.513Z,8.30
2018-12-06T01:40:41.323Z,8.30
2018-12-06T01:41:15.117Z,8.30
2018-12-06T01:41:48.906Z,8.30
2018-12-06T01:42:22.872Z,8.30
2018-12-06T01:42:56.845Z,8.30
2018-12-06T01:43:30.665Z,8.30
2018-12-06T01:44:04.667Z,8.30
2018-12-06T01:44:38.524Z,8.30
2018-12-06T01:45:12.282Z,8.30
2018-12-06T01:45:46.094Z,8.30
2018-12-06T01:46:20.071Z,8.30
2018-12-06T01:46:54.137Z,8.30
2018-12-06T01:47:28.119Z,8.40
2018-12-06T01:48:01.898Z,8.40
2018-12-06T01:48:36.298Z,8.40
2018-12-06T01:49:10.310Z,8.30
2018-12-06T01:49:44.173Z,8.40
2018-12-06T01:50:18.106Z,8.40
2018-12-06T01:50:51.872Z,8.40
2018-12-06T01:51:25.878Z,8.40
2018-12-06T01:51:59.715Z,8.40
2018-12-06T01:52:33.701Z,8.40
2018-12-06T01:53:07.414Z,8.40
2018-12-06T01:53:41.310Z,8.40
2018-12-06T01:54:15.183Z,8.40
2018-12-06T01:54:48.985Z,8.40
2018-12-06T01:55:22.679Z,8.40
2018-12-06T01:55:56.541Z,8.40
2018-12-06T01:56:30.405Z,8.40
2018-12-06T01:57:04.243Z,8.40
2018-12-06T01:57:38.143Z,8.50
2018-12-06T01:58:12.044Z,8.50
2018-12-06T01:58:45.990Z,8.50
2018-12-06T01:59:20.046Z,8.40
2018-12-06T01:59:53.994Z,8.40
2018-12-06T02:00:28.061Z,8.40
2018-12-06T02:01:01.859Z,8.50
2018-12-06T02:01:35.512Z,8.50
2018-12-06T02:02:09.266Z,8.50
2018-12-06T02:02:43.119Z,8.50
2018-12-06T02:03:17.069Z,8.50
2018-12-06T02:03:50.961Z,8.50
2018-12-06T02:04:24.890Z,8.50
2018-12-06T02:04:58.770Z,8.50
2018-12-06T02:05:32.786Z,8.50
2018-12-06T02:06:06.739Z,8.50
2018-12-06T02:06:40.739Z,8.50
2018-12-06T02:07:14.666Z,8.50
2018-12-06T02:07:48.469Z,8.50
2018-12-06T02:08:22.329Z,8.50
2018-12-06T02:08:56.142Z,8.40
2018-12-06T02:09:30.028Z,8.40
2018-12-06T02:10:05.623Z,8.50
2018-12-06T02:10:39.456Z,8.50
2018-12-06T02:11:13.238Z,8.50
2018-12-06T02:11:47.061Z,8.50
2018-12-06T02:12:20.806Z,8.50
2018-12-06T02:12:54.593Z,8.40
2018-12-06T02:13:28.405Z,8.40
2018-12-06T02:14:02.212Z,8.50
2018-12-06T02:14:38.183Z,8.40
2018-12-06T02:15:12.207Z,8.40
2018-12-06T02:15:46.137Z,8.40
2018-12-06T02:16:20.058Z,8.40
2018-12-06T02:17:00.961Z,8.40
2018-12-06T02:17:34.722Z,8.40
2018-12-06T02:18:08.592Z,8.40
2018-12-06T02:18:42.506Z,8.40
2018-12-06T02:19:16.342Z,8.40
2018-12-06T02:19:50.113Z,8.40
2018-12-06T02:20:24.324Z,8.40
2018-12-06T02:20:58.283Z,8.40
2018-12-06T02:21:32.248Z,8.40
2018-12-06T02:22:06.153Z,8.40
2018-12-06T02:22:39.914Z,8.40
2018-12-06T02:23:13.814Z,8.40
2018-12-06T02:23:47.602Z,8.40
2018-12-06T02:24:21.533Z,8.40
2018-12-06T02:24:55.395Z,8.40
2018-12-06T02:25:29.219Z,8.40
2018-12-06T02:26:03.450Z,8.40
2018-12-06T02:26:37.217Z,8.40
2018-12-06T02:27:11.286Z,8.30
2018-12-06T02:27:45.159Z,8.40
2018-12-06T02:28:19.136Z,8.40
2018-12-06T02:28:53.141Z,8.30
2018-12-06T02:29:31.484Z,8.30
2018-12-06T02:30:05.736Z,8.40
2018-12-06T02:30:39.552Z,8.40
2018-12-06T02:31:13.373Z,8.40
2018-12-06T02:31:47.163Z,8.30
2018-12-06T02:32:21.504Z,8.30
2018-12-06T02:32:55.481Z,8.40
2018-12-06T02:33:29.551Z,8.30
2018-12-06T02:34:03.400Z,8.40
2018-12-06T02:34:37.121Z,8.40
2018-12-06T02:35:11.036Z,8.30
2018-12-06T02:35:44.951Z,8.40
2018-12-06T02:36:18.933Z,8.40
2018-12-06T02:36:52.913Z,8.40
2018-12-06T02:37:26.831Z,8.30
2018-12-06T02:38:00.643Z,8.30
2018-12-06T02:38:34.505Z,8.30
2018-12-06T02:39:08.586Z,8.30
2018-12-06T02:39:42.528Z,8.30
2018-12-06T02:40:16.378Z,8.30
2018-12-06T02:40:50.262Z,8.30
2018-12-06T02:41:24.060Z,8.30
2018-12-06T02:41:57.994Z,8.30
2018-12-06T02:42:31.805Z,8.30
2018-12-06T02:43:05.738Z,8.30
2018-12-06T02:43:39.789Z,8.30
2018-12-06T02:44:13.465Z,8.30
2018-12-06T02:44:47.331Z,8.30
2018-12-06T02:45:21.184Z,8.30
2018-12-06T02:45:55.017Z,8.30
2018-12-06T02:46:29.071Z,8.30
2018-12-06T02:47:02.952Z,8.30
2018-12-06T02:47:36.731Z,8.30
2018-12-06T02:48:10.522Z,8.30
2018-12-06T02:48:44.482Z,8.30
2018-12-06T02:49:18.394Z,8.30
2018-12-06T02:49:52.237Z,8.30
2018-12-06T02:50:26.108Z,8.30
2018-12-06T02:50:59.924Z,8.30
2018-12-06T02:51:33.697Z,8.30
2018-12-06T02:52:07.676Z,8.30
2018-12-06T02:52:41.445Z,8.30
2018-12-06T02:53:15.482Z,8.30
2018-12-06T02:53:49.398Z,8.30
2018-12-06T02:54:23.328Z,8.30
2018-12-06T02:54:57.371Z,8.30
2018-12-06T02:55:31.233Z,8.30
2018-12-06T02:56:05.193Z,8.30
2018-12-06T02:56:39.014Z,8.30
2018-12-06T02:57:13.054Z,8.20
2018-12-06T02:57:47.001Z,8.30
2018-12-06T02:58:20.848Z,8.30
2018-12-06T02:58:54.658Z,8.30
2018-12-06T02:59:28.614Z,8.30
2018-12-06T03:00:02.826Z,8.30
2018-12-06T03:00:36.686Z,8.30
2018-12-06T03:01:10.616Z,8.30
2018-12-06T03:01:44.584Z,8.30
2018-12-06T03:02:18.462Z,8.20
2018-12-06T03:02:52.348Z,8.20
2018-12-06T03:03:26.178Z,8.20
2018-12-06T03:04:00.114Z,8.20
2018-12-06T03:04:34.104Z,8.20
2018-12-06T03:05:14.982Z,8.20
2018-12-06T03:05:48.891Z,8.20
2018-12-06T03:06:22.812Z,8.20
2018-12-06T03:06:56.729Z,8.20
2018-12-06T03:07:30.623Z,8.20
2018-12-06T03:08:04.323Z,8.20
2018-12-06T03:08:38.234Z,8.20
2018-12-06T03:09:12.192Z,8.20
2018-12-06T03:09:46.348Z,8.20
2018-12-06T03:10:20.201Z,8.20
2018-12-06T03:10:53.929Z,8.20
2018-12-06T03:11:27.842Z,8.20
2018-12-06T03:12:01.777Z,8.20
2018-12-06T03:12:35.693Z,8.20
2018-12-06T03:13:09.683Z,8.10
2018-12-06T03:13:43.526Z,8.20
2018-12-06T03:14:17.291Z,8.20
2018-12-06T03:14:51.227Z,8.20
2018-12-06T03:15:25.206Z,8.20
2018-12-06T03:15:59.261Z,8.20
2018-12-06T03:16:33.077Z,8.20
2018-12-06T03:17:07.078Z,8.20
2018-12-06T03:17:40.958Z,8.20
2018-12-06T03:18:14.828Z,8.20
2018-12-06T03:18:48.724Z,8.20
2018-12-06T03:19:22.511Z,8.20
2018-12-06T03:19:56.278Z,8.20
2018-12-06T03:20:30.272Z,8.20
2018-12-06T03:21:04.111Z,8.20
2018-12-06T03:21:37.939Z,8.20
2018-12-06T03:22:11.919Z,8.20
2018-12-06T03:22:46.073Z,8.20
2018-12-06T03:23:19.869Z,8.20
2018-12-06T03:23:53.735Z,8.20
2018-12-06T03:24:27.608Z,8.20
2018-12-06T03:25:01.564Z,8.20
2018-12-06T03:25:35.649Z,8.20
2018-12-06T03:26:09.723Z,8.20
2018-12-06T03:26:43.794Z,8.20
2018-12-06T03:27:17.783Z,8.20
2018-12-06T03:27:51.558Z,8.20
2018-12-06T03:28:25.427Z,8.20
2018-12-06T03:29:02.715Z,8.20
2018-12-06T03:29:36.771Z,8.20
2018-12-06T03:30:10.538Z,8.30
2018-12-06T03:30:44.351Z,8.30
2018-12-06T03:31:18.402Z,8.30
2018-12-06T03:31:52.411Z,8.30
2018-12-06T03:32:26.218Z,8.20
2018-12-06T03:33:00.290Z,8.20
2018-12-06T03:33:34.068Z,8.20
2018-12-06T03:34:07.898Z,8.30
2018-12-06T03:34:41.814Z,8.30
2018-12-06T03:35:15.568Z,8.30
2018-12-06T03:35:49.437Z,8.20
2018-12-06T03:36:23.444Z,8.30
2018-12-06T03:36:57.278Z,8.20
2018-12-06T03:37:31.082Z,8.30
2018-12-06T03:38:05.019Z,8.30
2018-12-06T03:38:38.926Z,8.30
2018-12-06T03:39:13.008Z,8.20
2018-12-06T03:39:46.850Z,8.30
2018-12-06T03:40:20.847Z,8.30
2018-12-06T03:40:54.603Z,8.30
2018-12-06T03:41:29.380Z,8.20
2018-12-06T03:42:03.247Z,8.30
2018-12-06T03:42:37.138Z,8.30
2018-12-06T03:43:11.150Z,8.30
2018-12-06T03:43:44.910Z,8.30
2018-12-06T03:44:18.730Z,8.30
2018-12-06T03:44:52.571Z,8.30
2018-12-06T03:45:26.934Z,8.30
2018-12-06T03:46:00.818Z,8.30
2018-12-06T03:46:34.641Z,8.30
2018-12-06T03:47:08.585Z,8.30
2018-12-06T03:47:42.453Z,8.30
2018-12-06T03:48:16.198Z,8.40
2018-12-06T03:48:50.105Z,8.30
2018-12-06T03:49:23.913Z,8.40
2018-12-06T03:49:57.855Z,8.40
2018-12-06T03:50:31.630Z,8.40
2018-12-06T03:51:05.417Z,8.40
2018-12-06T03:51:39.323Z,8.40
2018-12-06T03:52:13.276Z,8.40
2018-12-06T03:52:47.055Z,8.40
2018-12-06T03:53:20.948Z,8.40
2018-12-06T03:53:54.873Z,8.40
2018-12-06T03:54:28.795Z,8.40
2018-12-06T03:55:02.819Z,8.40
2018-12-06T03:55:36.790Z,8.40
2018-12-06T03:56:10.552Z,8.40
2018-12-06T03:56:44.378Z,8.40
2018-12-06T03:57:18.314Z,8.40
2018-12-06T03:57:52.238Z,8.50
2018-12-06T03:58:26.175Z,8.40
2018-12-06T03:58:59.964Z,8.50
2018-12-06T03:59:33.938Z,8.50
2018-12-06T04:00:08.150Z,8.50
2018-12-06T04:00:42.092Z,8.50
2018-12-06T04:01:56.730Z,8.50
2018-12-06T04:02:30.605Z,8.50
2018-12-06T04:03:04.335Z,8.50
2018-12-06T04:03:38.263Z,8.50
2018-12-06T04:04:12.359Z,8.50
2018-12-06T04:04:46.308Z,8.50
2018-12-06T04:05:22.410Z,8.50
2018-12-06T04:05:56.467Z,8.50
2018-12-06T04:06:30.345Z,8.50
2018-12-06T04:07:04.245Z,8.50
2018-12-06T04:07:38.173Z,8.50
2018-12-06T04:08:12.035Z,8.50
2018-12-06T04:08:45.881Z,8.50
2018-12-06T04:09:19.740Z,8.50
2018-12-06T04:09:53.618Z,8.50
2018-12-06T04:10:27.579Z,8.50
2018-12-06T04:11:01.546Z,8.50
2018-12-06T04:11:35.509Z,8.50
2018-12-06T04:12:10.391Z,8.50
2018-12-06T04:12:44.632Z,8.50
2018-12-06T04:13:18.493Z,8.50
2018-12-06T04:13:52.246Z,8.50
2018-12-06T04:14:26.119Z,8.50
2018-12-06T04:15:00.176Z,8.50
2018-12-06T04:15:34.296Z,8.50
2018-12-06T04:16:08.117Z,8.60
2018-12-06T04:16:41.907Z,8.50
2018-12-06T04:17:15.926Z,8.50
2018-12-06T04:17:49.674Z,8.60
2018-12-06T04:18:23.611Z,8.60
2018-12-06T04:18:58.452Z,8.60
2018-12-06T04:19:32.454Z,8.60
2018-12-06T04:20:06.565Z,8.60
2018-12-06T04:20:40.311Z,8.50
2018-12-06T04:21:15.932Z,8.60
2018-12-06T04:21:50.159Z,8.60
2018-12-06T04:22:24.382Z,8.60
2018-12-06T04:22:58.331Z,8.60
2018-12-06T04:23:32.104Z,8.60
2018-12-06T04:24:05.949Z,8.60
2018-12-06T04:24:39.897Z,8.60
2018-12-06T04:25:13.784Z,8.60
2018-12-06T04:25:47.542Z,8.60
2018-12-06T04:26:21.405Z,8.60
2018-12-06T04:26:55.318Z,8.60
2018-12-06T04:27:29.370Z,8.60
2018-12-06T04:28:03.364Z,8.60
2018-12-06T04:28:37.110Z,8.60
2018-12-06T04:29:11.274Z,8.60
2018-12-06T04:29:45.149Z,8.50
2018-12-06T04:30:18.936Z,8.60
2018-12-06T04:30:52.786Z,8.60
2018-12-06T04:31:26.650Z,8.60
2018-12-06T04:32:00.653Z,8.60
2018-12-06T04:32:34.596Z,8.60
2018-12-06T04:33:08.872Z,8.60
2018-12-06T04:33:42.779Z,8.60
2018-12-06T04:34:16.763Z,8.60
2018-12-06T04:34:50.728Z,8.60
2018-12-06T04:35:24.670Z,8.60
2018-12-06T04:35:58.373Z,8.60
2018-12-06T04:36:32.255Z,8.60
2018-12-06T04:37:06.184Z,8.60
2018-12-06T04:37:40.194Z,8.60
2018-12-06T04:38:14.128Z,8.60
2018-12-06T04:38:47.908Z,8.60
2018-12-06T04:39:22.042Z,8.60
2018-12-06T04:39:55.895Z,8.60
2018-12-06T04:40:29.770Z,8.60
2018-12-06T04:41:03.589Z,8.60
2018-12-06T04:41:37.395Z,8.60
2018-12-06T04:42:11.436Z,8.60
2018-12-06T04:42:45.361Z,8.60
2018-12-06T04:43:19.203Z,8.60
2018-12-06T04:43:53.212Z,8.60
2018-12-06T04:44:27.123Z,8.60
2018-12-06T04:45:01.192Z,8.60
2018-12-06T04:45:34.914Z,8.60
2018-12-06T04:46:08.887Z,8.60
2018-12-06T04:46:42.838Z,8.60
2018-12-06T04:47:16.573Z,8.70
2018-12-06T04:47:50.545Z,8.60
2018-12-06T04:48:24.215Z,8.70
2018-12-06T04:48:58.236Z,8.70
2018-12-06T04:49:32.189Z,8.70
2018-12-06T04:50:06.559Z,8.70
2018-12-06T04:50:40.466Z,8.70
2018-12-06T04:51:14.510Z,8.70
2018-12-06T04:51:48.292Z,8.70
2018-12-06T04:52:22.182Z,8.70
2018-12-06T04:52:56.335Z,8.70
2018-12-06T04:53:30.683Z,8.70
2018-12-06T04:54:04.580Z,8.70
2018-12-06T04:54:38.429Z,8.70
2018-12-06T04:55:12.542Z,8.70
2018-12-06T04:55:46.465Z,8.70
2018-12-06T04:56:20.497Z,8.70
2018-12-06T04:56:54.460Z,8.70
2018-12-06T04:57:28.384Z,8.70
2018-12-06T04:58:02.649Z,8.70
2018-12-06T04:58:36.541Z,8.70
2018-12-06T04:59:10.542Z,8.70
2018-12-06T04:59:44.481Z,8.70
2018-12-06T05:00:18.289Z,8.80
2018-12-06T05:00:52.237Z,8.70
2018-12-06T05:01:26.250Z,8.70
2018-12-06T05:02:00.185Z,8.70
2018-12-06T05:02:34.114Z,8.70
2018-12-06T05:03:08.047Z,8.80
2018-12-06T05:03:41.982Z,8.70
2018-12-06T05:04:16.187Z,8.80
2018-12-06T05:04:49.924Z,8.80
2018-12-06T05:05:23.753Z,8.80
2018-12-06T05:05:57.695Z,8.80
2018-12-06T05:06:31.790Z,8.80
2018-12-06T05:07:05.870Z,8.80
2018-12-06T05:07:40.193Z,8.80
2018-12-06T05:08:14.980Z,8.80
2018-12-06T05:08:48.910Z,8.80
2018-12-06T05:09:23.344Z,8.80
2018-12-06T05:09:57.208Z,8.80
2018-12-06T05:10:31.127Z,8.80
2018-12-06T05:11:05.143Z,8.80
2018-12-06T05:11:38.830Z,8.80
2018-12-06T05:12:12.810Z,8.80
2018-12-06T05:12:46.558Z,8.80
2018-12-06T05:13:20.479Z,8.80
2018-12-06T05:13:54.518Z,8.80
2018-12-06T05:14:28.483Z,8.80
2018-12-06T05:15:02.596Z,8.80
2018-12-06T05:15:36.338Z,8.80
2018-12-06T05:16:14.122Z,8.80
2018-12-06T05:16:48.204Z,8.90
2018-12-06T05:17:22.084Z,8.90
2018-12-06T05:17:56.076Z,8.80
2018-12-06T05:18:29.994Z,8.90
2018-12-06T05:20:20.543Z,8.90
2018-12-06T05:20:54.409Z,8.90
2018-12-06T05:21:28.247Z,8.90
2018-12-06T05:22:02.139Z,8.90
2018-12-06T05:22:36.032Z,8.90
2018-12-06T05:23:09.761Z,8.90
2018-12-06T05:23:43.754Z,8.90
2018-12-06T05:24:17.705Z,8.90
2018-12-06T05:24:51.769Z,8.90
2018-12-06T05:25:25.714Z,8.90
2018-12-06T05:25:59.589Z,8.90
2018-12-06T05:26:33.471Z,8.90
2018-12-06T05:27:07.506Z,8.90
2018-12-06T05:27:41.990Z,8.90
2018-12-06T05:28:16.078Z,8.90
2018-12-06T05:28:50.066Z,8.90
2018-12-06T05:29:24.576Z,8.90
2018-12-06T05:29:59.154Z,8.90
2018-12-06T05:30:33.095Z,8.90
2018-12-06T05:31:07.508Z,8.90
2018-12-06T05:31:41.702Z,8.90
2018-12-06T05:32:15.555Z,8.90
2018-12-06T05:32:49.466Z,8.90
2018-12-06T05:33:23.626Z,8.90
2018-12-06T05:33:57.563Z,8.90
2018-12-06T05:34:31.504Z,8.90
2018-12-06T05:35:06.162Z,8.90
2018-12-06T05:35:40.171Z,8.90
2018-12-06T05:36:14.554Z,8.90
2018-12-06T05:36:48.412Z,8.90
2018-12-06T05:37:22.414Z,8.90
2018-12-06T05:37:56.854Z,8.90
2018-12-06T05:38:31.339Z,8.90
2018-12-06T05:39:06.780Z,8.90
2018-12-06T05:39:40.899Z,8.90
2018-12-06T05:40:15.344Z,8.90
2018-12-06T05:40:49.317Z,8.90
2018-12-06T05:41:23.274Z,8.90
2018-12-06T05:41:57.150Z,8.90
2018-12-06T05:42:30.996Z,8.90
2018-12-06T05:43:05.121Z,8.90
2018-12-06T05:43:38.950Z,8.90
2018-12-06T05:44:12.835Z,8.90
2018-12-06T05:44:46.865Z,8.90
2018-12-06T05:45:20.742Z,9.00
2018-12-06T05:45:54.687Z,9.00
2018-12-06T05:46:28.559Z,9.00
2018-12-06T05:47:03.233Z,9.00
2018-12-06T05:47:37.203Z,9.00
2018-12-06T05:48:10.989Z,9.00
2018-12-06T05:48:44.930Z,9.00
2018-12-06T05:49:18.887Z,9.00
2018-12-06T05:49:52.843Z,9.00
2018-12-06T05:50:26.689Z,9.00
2018-12-06T05:51:01.371Z,9.00
2018-12-06T05:51:35.200Z,9.00
2018-12-06T05:52:08.951Z,9.00
2018-12-06T05:52:42.901Z,9.00
2018-12-06T05:53:16.766Z,9.00
2018-12-06T05:53:51.142Z,9.00
2018-12-06T05:54:25.042Z,9.00
2018-12-06T05:54:58.941Z,9.00
2018-12-06T05:55:32.834Z,9.00
2018-12-06T05:56:06.865Z,9.00
2018-12-06T05:56:40.899Z,9.00
2018-12-06T05:57:14.857Z,9.00
2018-12-06T05:57:48.719Z,9.00
2018-12-06T05:58:22.954Z,9.00
2018-12-06T05:58:56.729Z,9.00
2018-12-06T05:59:30.887Z,9.00
2018-12-06T06:00:47.686Z,9.00
2018-12-06T06:01:22.118Z,9.00
2018-12-06T06:01:56.062Z,9.00
2018-12-06T06:02:30.882Z,9.00
2018-12-06T06:03:04.919Z,9.00
2018-12-06T06:03:38.815Z,9.00
2018-12-06T06:04:12.732Z,9.00
2018-12-06T06:04:46.701Z,9.00
2018-12-06T06:05:21.272Z,9.00
2018-12-06T06:05:55.207Z,9.00
2018-12-06T06:06:29.102Z,9.00
2018-12-06T06:07:02.916Z,9.00
2018-12-06T06:07:36.998Z,9.00
2018-12-06T06:08:10.904Z,9.00
2018-12-06T06:08:45.089Z,9.00
2018-12-06T06:09:19.105Z,9.00
2018-12-06T06:09:53.126Z,9.00
2018-12-06T06:10:26.807Z,9.00
2018-12-06T06:11:01.341Z,9.00
2018-12-06T06:11:35.163Z,9.00
2018-12-06T06:12:10.250Z,9.00
2018-12-06T06:12:44.400Z,9.00
2018-12-06T06:13:18.368Z,9.00
2018-12-06T06:13:52.365Z,9.00
2018-12-06T06:14:26.728Z,9.00
2018-12-06T06:15:01.074Z,9.00
2018-12-06T06:15:37.147Z,9.00
2018-12-06T06:16:11.696Z,9.00
2018-12-06T06:16:45.753Z,9.00
2018-12-06T06:17:19.714Z,9.00
2018-12-06T06:17:53.630Z,9.00
2018-12-06T06:18:28.458Z,9.00
2018-12-06T06:19:02.267Z,9.00
2018-12-06T06:19:36.453Z,9.00
2018-12-06T06:20:10.552Z,9.10
2018-12-06T06:20:44.495Z,9.10
2018-12-06T06:21:18.206Z,9.10
2018-12-06T06:21:52.124Z,9.10
2018-12-06T06:22:25.946Z,9.10
2018-12-06T06:22:59.861Z,9.10
2018-12-06T06:23:34.018Z,9.20
2018-12-06T06:24:07.898Z,9.10
2018-12-06T06:24:41.897Z,9.10
2018-12-06T06:25:15.716Z,9.10
2018-12-06T06:25:49.622Z,9.10
2018-12-06T06:26:23.602Z,9.10
2018-12-06T06:26:57.592Z,9.10
2018-12-06T06:27:31.366Z,9.10
2018-12-06T06:28:05.310Z,9.10
2018-12-06T06:28:39.295Z,9.20
2018-12-06T06:29:13.307Z,9.10
2018-12-06T06:29:47.359Z,9.10
2018-12-06T06:30:21.118Z,9.10
2018-12-06T06:30:55.114Z,9.10
2018-12-06T06:31:29.015Z,9.10
2018-12-06T06:32:02.771Z,9.10
2018-12-06T06:32:36.810Z,9.10
2018-12-06T06:33:11.400Z,9.10
2018-12-06T06:33:45.143Z,9.20
2018-12-06T06:34:19.114Z,9.20
2018-12-06T06:34:53.021Z,9.20
2018-12-06T06:35:27.251Z,9.20
2018-12-06T06:36:01.180Z,9.20
2018-12-06T06:36:35.206Z,9.20
2018-12-06T06:37:09.067Z,9.20
2018-12-06T06:37:42.907Z,9.20
2018-12-06T06:38:16.773Z,9.20
2018-12-06T06:38:50.653Z,9.20
2018-12-06T06:39:24.538Z,9.20
2018-12-06T06:39:58.417Z,9.20
2018-12-06T06:40:32.224Z,9.20
2018-12-06T06:41:06.031Z,9.20
2018-12-06T06:41:39.956Z,9.20
2018-12-06T06:42:13.702Z,9.20
2018-12-06T06:42:47.605Z,9.30
2018-12-06T06:43:21.665Z,9.30
2018-12-06T06:43:55.766Z,9.30
2018-12-06T06:44:29.736Z,9.30
2018-12-06T06:45:04.185Z,9.30
2018-12-06T06:45:38.102Z,9.30
2018-12-06T06:46:12.226Z,9.30
2018-12-06T06:46:45.958Z,9.30
2018-12-06T06:47:19.823Z,9.30
2018-12-06T06:47:53.672Z,9.30
2018-12-06T06:48:27.603Z,9.30
2018-12-06T06:49:01.634Z,9.40
2018-12-06T06:49:35.571Z,9.40
2018-12-06T06:50:09.507Z,9.40
2018-12-06T06:50:43.339Z,9.40
2018-12-06T06:51:17.651Z,9.40
2018-12-06T06:51:51.511Z,9.40
2018-12-06T06:52:25.566Z,9.40
2018-12-06T06:52:59.430Z,9.30
2018-12-06T06:53:33.297Z,9.40
2018-12-06T06:54:07.286Z,9.40
2018-12-06T06:54:41.010Z,9.40
2018-12-06T06:55:14.880Z,9.40
2018-12-06T06:55:48.593Z,9.40
2018-12-06T06:56:22.451Z,9.40
2018-12-06T06:56:56.309Z,9.40
2018-12-06T06:57:30.326Z,9.40
2018-12-06T06:58:04.390Z,9.40
2018-12-06T06:58:38.103Z,9.40
2018-12-06T06:59:11.978Z,9.40
2018-12-06T06:59:46.109Z,9.40
2018-12-06T07:00:20.075Z,9.40
2018-12-06T07:00:53.935Z,9.50
2018-12-06T07:01:27.816Z,9.40
2018-12-06T07:02:01.722Z,9.50
2018-12-06T07:02:35.651Z,9.50
2018-12-06T07:03:09.647Z,9.50
2018-12-06T07:03:44.007Z,9.50
2018-12-06T07:04:18.109Z,9.50
2018-12-06T07:04:52.176Z,9.50
2018-12-06T07:05:26.239Z,9.50
2018-12-06T07:06:00.186Z,9.60
2018-12-06T07:06:34.096Z,9.50
2018-12-06T07:07:08.038Z,9.50
2018-12-06T07:07:41.882Z,9.60
2018-12-06T07:08:15.637Z,9.60
2018-12-06T07:08:49.503Z,9.60
2018-12-06T07:09:23.417Z,9.60
2018-12-06T07:09:57.272Z,9.60
2018-12-06T07:10:31.261Z,9.60
2018-12-06T07:11:05.206Z,9.60
2018-12-06T07:11:39.223Z,9.60
2018-12-06T07:12:12.994Z,9.60
2018-12-06T07:12:46.934Z,9.60
2018-12-06T07:13:20.811Z,9.60
2018-12-06T07:13:54.647Z,9.60
2018-12-06T07:14:28.521Z,9.60
2018-12-06T07:15:02.672Z,9.60
2018-12-06T07:15:36.682Z,9.60
2018-12-06T07:16:10.376Z,9.60
2018-12-06T07:16:44.318Z,9.60
2018-12-06T07:17:18.157Z,9.60
2018-12-06T07:17:52.115Z,9.60
2018-12-06T07:18:25.914Z,9.60
2018-12-06T07:18:59.797Z,9.60
2018-12-06T07:19:33.567Z,9.60
2018-12-06T07:20:07.566Z,9.60
2018-12-06T07:20:41.478Z,9.60
2018-12-06T07:21:15.371Z,9.60
2018-12-06T07:21:49.250Z,9.60
2018-12-06T07:22:23.054Z,9.60
2018-12-06T07:22:56.911Z,9.70
2018-12-06T07:23:30.954Z,9.70
2018-12-06T07:24:05.042Z,9.70
2018-12-06T07:24:39.030Z,9.70
2018-12-06T07:25:12.920Z,9.70
2018-12-06T07:25:47.044Z,9.70
2018-12-06T07:26:20.714Z,9.70
2018-12-06T07:26:54.479Z,9.70
2018-12-06T07:27:28.263Z,9.70
2018-12-06T07:28:02.178Z,9.70
2018-12-06T07:28:36.004Z,9.70
2018-12-06T07:29:09.961Z,9.70
2018-12-06T07:29:43.774Z,9.70
2018-12-06T07:30:17.532Z,9.70
2018-12-06T07:30:51.462Z,9.70
2018-12-06T07:31:25.439Z,9.70
2018-12-06T07:31:59.194Z,9.70
2018-12-06T07:32:33.037Z,9.70
2018-12-06T07:33:06.839Z,9.70
2018-12-06T07:33:40.734Z,9.80
2018-12-06T07:34:14.726Z,9.70
2018-12-06T07:34:48.697Z,9.70
2018-12-06T07:35:22.538Z,9.80
2018-12-06T07:35:56.379Z,9.80
2018-12-06T07:36:30.313Z,9.80